createdAt,value
2023-03-02T00:01:56.042Z,9.94
2023-03-02T00:04:22.425Z,9.93
2023-03-02T00:06:48.806Z,9.92
2023-03-02T00:09:15.401Z,9.91
2023-03-02T00:11:42.037Z,9.89
2023-03-02T00:14:08.348Z,9.87
2023-03-02T00:16:34.912Z,9.86
2023-03-02T00:19:01.079Z,9.84
2023-03-02T00:21:27.450Z,9.80
2023-03-02T00:23:53.784Z,9.78
2023-03-02T00:26:20.154Z,9.76
2023-03-02T00:28:47.854Z,9.74
2023-03-02T00:31:14.270Z,9.71
2023-03-02T00:33:40.542Z,9.69
2023-03-02T00:36:06.935Z,9.68
2023-03-02T00:38:33.297Z,9.68
2023-03-02T00:40:59.664Z,9.67
2023-03-02T00:43:25.987Z,9.66
2023-03-02T00:45:52.330Z,9.65
2023-03-02T00:48:18.644Z,9.65
2023-03-02T00:50:45.021Z,9.62
2023-03-02T00:53:11.411Z,9.62
2023-03-02T00:55:37.749Z,9.60
2023-03-02T00:58:04.128Z,9.59
2023-03-02T01:00:30.501Z,9.57
2023-03-02T01:02:57.023Z,9.57
2023-03-02T01:05:23.267Z,9.55
2023-03-02T01:07:49.630Z,9.56
2023-03-02T01:10:16.003Z,9.54
2023-03-02T01:12:42.386Z,9.55
2023-03-02T01:15:08.737Z,9.54
2023-03-02T01:17:35.080Z,9.55
2023-03-02T01:20:01.490Z,9.55
2023-03-02T01:22:27.842Z,9.55
2023-03-02T01:24:54.210Z,9.55
2023-03-02T01:27:20.582Z,9.56
2023-03-02T01:29:46.946Z,9.56
2023-03-02T01:32:13.277Z,9.55
2023-03-02T01:34:39.650Z,9.55
2023-03-02T01:37:05.958Z,9.55
2023-03-02T01:39:32.292Z,9.55
2023-03-02T01:41:58.727Z,9.56
2023-03-02T01:44:25.096Z,9.56
2023-03-02T01:46:51.450Z,9.57
2023-03-02T01:49:17.822Z,9.57
2023-03-02T01:51:44.139Z,9.58
2023-03-02T01:54:10.505Z,9.58
2023-03-02T01:56:36.848Z,9.58
2023-03-02T01:59:03.211Z,9.58
2023-03-02T02:01:29.591Z,9.58
2023-03-02T02:03:55.946Z,9.58
2023-03-02T02:06:22.226Z,9.59
2023-03-02T02:08:48.560Z,9.59
2023-03-02T02:11:14.887Z,9.58
2023-03-02T02:13:41.277Z,9.58
2023-03-02T02:16:07.642Z,9.57
2023-03-02T02:18:33.981Z,9.57
2023-03-02T02:21:00.302Z,9.56
2023-03-02T02:23:27.160Z,9.56
2023-03-02T02:25:53.547Z,9.55
2023-03-02T02:28:19.899Z,9.54
2023-03-02T02:30:46.248Z,9.53
2023-03-02T02:33:12.656Z,9.53
2023-03-02T02:35:39.041Z,9.51
2023-03-02T02:38:05.387Z,9.51
2023-03-02T02:40:31.741Z,9.51
2023-03-02T02:42:58.129Z,9.51
2023-03-02T02:45:24.460Z,9.51
2023-03-02T02:47:50.799Z,9.49
2023-03-02T02:50:17.172Z,9.48
2023-03-02T02:52:43.493Z,9.48
2023-03-02T02:55:09.888Z,9.47
2023-03-02T02:57:36.222Z,9.46
2023-03-02T03:00:02.580Z,9.47
2023-03-02T03:02:29.040Z,9.46
2023-03-02T03:04:55.401Z,9.46
2023-03-02T03:07:21.778Z,9.47
2023-03-02T03:09:49.153Z,9.48
2023-03-02T03:12:15.514Z,9.47
2023-03-02T03:14:44.356Z,9.46
2023-03-02T03:17:10.729Z,9.47
2023-03-02T03:19:37.041Z,9.47
2023-03-02T03:22:03.372Z,9.47
2023-03-02T03:24:29.744Z,9.45
2023-03-02T03:26:56.072Z,9.46
2023-03-02T03:29:22.438Z,9.47
2023-03-02T03:31:48.822Z,9.47
2023-03-02T03:34:15.142Z,9.47
2023-03-02T03:36:41.490Z,9.47
2023-03-02T03:39:07.818Z,9.48
2023-03-02T03:41:34.219Z,9.48
2023-03-02T03:44:00.580Z,9.48
2023-03-02T03:46:27.011Z,9.48
2023-03-02T03:48:53.285Z,9.48
2023-03-02T03:51:19.624Z,9.48
2023-03-02T03:53:45.968Z,9.48
2023-03-02T03:56:12.338Z,9.47
2023-03-02T03:58:38.826Z,9.46
2023-03-02T04:01:05.113Z,9.45
2023-03-02T04:03:31.443Z,9.45
2023-03-02T04:05:57.836Z,9.44
2023-03-02T04:08:24.143Z,9.43
2023-03-02T04:10:50.547Z,9.42
2023-03-02T04:13:16.912Z,9.41
2023-03-02T04:15:45.348Z,9.40
2023-03-02T04:18:09.700Z,9.38
2023-03-02T04:20:36.042Z,9.37
2023-03-02T04:23:02.418Z,9.36
2023-03-02T04:25:28.743Z,9.37
2023-03-02T04:27:55.111Z,9.36
2023-03-02T04:30:21.463Z,9.34
2023-03-02T04:32:47.805Z,9.35
2023-03-02T04:35:14.186Z,9.35
2023-03-02T04:37:40.548Z,9.35
2023-03-02T04:40:06.928Z,9.34
2023-03-02T04:42:33.257Z,9.34
2023-03-02T04:44:59.601Z,9.34
2023-03-02T04:47:25.964Z,9.34
2023-03-02T04:49:52.310Z,9.34
2023-03-02T04:52:18.679Z,9.34
2023-03-02T04:54:45.017Z,9.33
2023-03-02T04:57:11.610Z,9.33
2023-03-02T04:59:37.988Z,9.34
2023-03-02T05:02:04.336Z,9.33
2023-03-02T05:04:30.863Z,9.34
2023-03-02T05:06:57.254Z,9.33
2023-03-02T05:09:23.579Z,9.34
2023-03-02T05:11:49.944Z,9.34
2023-03-02T05:14:16.384Z,9.35
2023-03-02T05:16:42.787Z,9.34
2023-03-02T05:19:09.072Z,9.35
2023-03-02T05:21:35.535Z,9.35
2023-03-02T05:24:01.872Z,9.36
2023-03-02T05:26:28.239Z,9.38
2023-03-02T05:28:54.632Z,9.39
2023-03-02T05:31:21.004Z,9.41
2023-03-02T05:33:47.305Z,9.44
2023-03-02T05:36:13.637Z,9.47
2023-03-02T05:38:39.981Z,9.50
2023-03-02T05:41:06.397Z,9.53
2023-03-02T05:43:32.806Z,9.56
2023-03-02T05:45:59.138Z,9.59
2023-03-02T05:48:25.757Z,9.61
2023-03-02T05:50:52.069Z,9.62
2023-03-02T05:53:18.458Z,9.63
2023-03-02T05:55:44.838Z,9.65
2023-03-02T05:58:11.212Z,9.67
2023-03-02T06:00:37.572Z,9.68
2023-03-02T06:03:03.997Z,9.70
2023-03-02T06:05:30.348Z,9.72
2023-03-02T06:07:56.728Z,9.75
2023-03-02T06:10:23.088Z,9.76
2023-03-02T06:12:49.577Z,9.79
2023-03-02T06:15:15.948Z,9.80
2023-03-02T06:17:42.308Z,9.80
2023-03-02T06:20:08.672Z,9.82
2023-03-02T06:22:35.017Z,9.84
2023-03-02T06:25:01.405Z,9.86
2023-03-02T06:27:27.784Z,9.88
2023-03-02T06:29:54.132Z,9.91
2023-03-02T06:32:20.664Z,9.94
2023-03-02T06:34:46.895Z,9.98
2023-03-02T06:37:13.230Z,10.02
2023-03-02T06:39:39.594Z,10.06
2023-03-02T06:42:07.073Z,10.09
2023-03-02T06:44:33.438Z,10.14
2023-03-02T06:46:59.816Z,10.18
2023-03-02T06:49:26.211Z,10.24
2023-03-02T06:51:52.536Z,10.29
2023-03-02T06:54:18.855Z,10.33
2023-03-02T06:56:45.342Z,10.34
2023-03-02T06:59:11.708Z,10.34
2023-03-02T07:01:38.203Z,10.32
2023-03-02T07:04:04.634Z,10.31
2023-03-02T07:06:30.943Z,10.30
2023-03-02T07:08:57.280Z,10.29
2023-03-02T07:11:23.670Z,10.28
2023-03-02T07:13:49.992Z,10.27
2023-03-02T07:16:16.431Z,10.26
2023-03-02T07:18:42.703Z,10.26
2023-03-02T07:21:09.183Z,10.26
2023-03-02T07:23:35.513Z,10.27
2023-03-02T07:26:01.857Z,10.28
2023-03-02T07:28:28.230Z,10.30
2023-03-02T07:30:54.924Z,10.34
2023-03-02T07:33:21.261Z,10.38
2023-03-02T07:35:47.734Z,10.43
2023-03-02T07:38:14.040Z,10.49
2023-03-02T07:40:40.422Z,10.54
2023-03-02T07:43:06.786Z,10.60
2023-03-02T07:45:33.164Z,10.65
2023-03-02T07:47:59.565Z,10.69
2023-03-02T07:50:25.901Z,10.71
2023-03-02T07:52:52.349Z,10.73
2023-03-02T07:55:18.701Z,10.73
2023-03-02T07:57:45.070Z,10.75
2023-03-02T08:00:11.447Z,10.74
2023-03-02T08:02:37.794Z,10.75
2023-03-02T08:05:04.355Z,10.74
2023-03-02T08:07:30.661Z,10.73
2023-03-02T08:09:57.054Z,10.74
2023-03-02T08:12:23.400Z,10.73
2023-03-02T08:14:49.742Z,10.74
2023-03-02T08:17:16.158Z,10.75
2023-03-02T08:19:42.548Z,10.77
2023-03-02T08:22:08.904Z,10.78
2023-03-02T08:24:35.282Z,10.80
2023-03-02T08:27:01.640Z,10.81
2023-03-02T08:29:28.048Z,10.83
2023-03-02T08:31:54.493Z,10.85
2023-03-02T08:34:20.745Z,10.88
2023-03-02T08:36:47.105Z,10.91
2023-03-02T08:39:13.716Z,10.95
2023-03-02T08:41:40.051Z,10.99
2023-03-02T08:44:06.432Z,11.04
2023-03-02T08:46:32.751Z,11.08
2023-03-02T08:48:59.146Z,11.13
2023-03-02T08:51:25.494Z,11.16
2023-03-02T08:53:51.887Z,11.19
2023-03-02T08:56:18.326Z,11.20
2023-03-02T08:58:44.730Z,11.22
2023-03-02T09:01:11.139Z,11.22
2023-03-02T09:03:37.408Z,11.23
2023-03-02T09:06:03.765Z,11.22
2023-03-02T09:08:30.124Z,11.24
2023-03-02T09:10:56.506Z,11.25
2023-03-02T09:13:22.881Z,11.26
2023-03-02T09:15:49.276Z,11.26
2023-03-02T09:18:15.910Z,11.28
2023-03-02T09:20:42.625Z,11.29
2023-03-02T09:23:08.984Z,11.30
2023-03-02T09:25:35.303Z,11.31
2023-03-02T09:28:01.895Z,11.32
2023-03-02T09:30:28.216Z,11.33
2023-03-02T09:32:54.716Z,11.33
2023-03-02T09:35:20.970Z,11.35
2023-03-02T09:37:47.445Z,11.38
2023-03-02T09:40:13.721Z,11.41
2023-03-02T09:42:44.179Z,11.45
2023-03-02T09:45:06.873Z,11.51
2023-03-02T09:47:35.840Z,11.55
2023-03-02T09:49:59.782Z,11.57
2023-03-02T09:52:26.423Z,11.59
2023-03-02T09:54:53.127Z,11.60
2023-03-02T09:57:19.477Z,11.59
2023-03-02T09:59:45.831Z,11.58
2023-03-02T10:02:12.207Z,11.57
2023-03-02T10:04:38.667Z,11.55
2023-03-02T10:07:04.872Z,11.55
2023-03-02T10:09:31.292Z,11.55
2023-03-02T10:11:57.675Z,11.57
2023-03-02T10:14:24.031Z,11.58
2023-03-02T10:16:50.398Z,11.59
2023-03-02T10:19:16.738Z,11.60
2023-03-02T10:21:43.107Z,11.61
2023-03-02T10:24:09.473Z,11.62
2023-03-02T10:26:36.007Z,11.63
2023-03-02T10:29:02.213Z,11.65
2023-03-02T10:31:28.620Z,11.66
2023-03-02T10:33:55.071Z,11.66
2023-03-02T10:36:21.404Z,11.66
2023-03-02T10:38:47.786Z,11.64
2023-03-02T10:41:14.165Z,11.63
2023-03-02T10:43:40.749Z,11.62
2023-03-02T10:46:07.083Z,11.60
2023-03-02T10:48:33.391Z,11.59
2023-03-02T10:50:59.754Z,11.58
2023-03-02T10:53:26.146Z,11.58
2023-03-02T10:55:52.505Z,11.59
2023-03-02T10:58:18.981Z,11.59
2023-03-02T11:00:45.337Z,11.62
2023-03-02T11:03:11.693Z,11.64
2023-03-02T11:05:38.009Z,11.69
2023-03-02T11:08:04.438Z,11.72
2023-03-02T11:10:30.786Z,11.77
2023-03-02T11:12:57.256Z,11.83
2023-03-02T11:15:23.566Z,11.88
2023-03-02T11:17:49.924Z,11.92
2023-03-02T11:20:16.596Z,11.96
2023-03-02T11:22:43.296Z,11.99
2023-03-02T11:25:09.647Z,12.04
2023-03-02T11:27:36.071Z,12.08
2023-03-02T11:30:04.568Z,12.12
2023-03-02T11:32:32.409Z,12.15
2023-03-02T11:35:01.610Z,12.18
2023-03-02T11:37:28.004Z,12.20
2023-03-02T11:39:56.141Z,12.22
2023-03-02T11:42:21.833Z,12.24
2023-03-02T11:44:48.180Z,12.28
2023-03-02T11:47:17.462Z,12.32
2023-03-02T11:49:43.827Z,12.35
2023-03-02T11:52:10.177Z,12.38
2023-03-02T11:54:36.606Z,12.40
2023-03-02T11:57:02.983Z,12.42
2023-03-02T11:59:29.317Z,12.43
2023-03-02T12:01:55.705Z,12.43
2023-03-02T12:04:24.563Z,12.43
2023-03-02T12:06:52.134Z,12.42
2023-03-02T12:09:26.115Z,12.41
2023-03-02T12:11:52.420Z,12.36
2023-03-02T12:14:18.808Z,12.32
2023-03-02T12:16:45.263Z,12.29
2023-03-02T12:19:11.539Z,12.27
2023-03-02T12:21:38.141Z,12.23
2023-03-02T12:24:04.615Z,12.19
2023-03-02T12:26:31.398Z,12.17
2023-03-02T12:28:58.841Z,12.15
2023-03-02T12:31:23.750Z,12.13
2023-03-02T12:33:50.469Z,12.12
2023-03-02T12:36:19.030Z,12.12
2023-03-02T12:38:45.494Z,12.12
2023-03-02T12:41:11.821Z,12.12
2023-03-02T12:43:38.170Z,12.14
2023-03-02T12:46:04.860Z,12.15
2023-03-02T12:48:32.358Z,12.16
2023-03-02T12:50:58.590Z,12.15
2023-03-02T12:53:26.198Z,12.16
2023-03-02T12:55:54.709Z,12.16
2023-03-02T12:58:21.412Z,12.17
2023-03-02T13:00:48.587Z,12.21
2023-03-02T13:03:14.891Z,12.27
2023-03-02T13:05:41.285Z,12.35
2023-03-02T13:08:07.673Z,12.43
2023-03-02T13:10:35.238Z,12.50
2023-03-02T13:13:01.585Z,12.56
2023-03-02T13:15:27.886Z,12.58
2023-03-02T13:17:54.233Z,12.59
2023-03-02T13:20:20.578Z,12.59
2023-03-02T13:22:47.051Z,12.59
2023-03-02T13:25:13.343Z,12.56
2023-03-02T13:27:39.712Z,12.54
2023-03-02T13:30:06.979Z,12.50
2023-03-02T13:32:32.476Z,12.49
2023-03-02T13:34:58.828Z,12.46
2023-03-02T13:37:25.156Z,12.44
2023-03-02T13:39:51.561Z,12.40
2023-03-02T13:42:18.143Z,12.38
2023-03-02T13:44:44.543Z,12.33
2023-03-02T13:47:10.934Z,12.29
2023-03-02T13:49:37.345Z,12.25
2023-03-02T13:52:03.751Z,12.21
2023-03-02T13:54:30.141Z,12.17
2023-03-02T13:56:56.455Z,12.14
2023-03-02T13:59:24.163Z,12.10
2023-03-02T14:01:50.439Z,12.09
2023-03-02T14:04:16.991Z,12.09
2023-03-02T14:06:43.257Z,12.11
2023-03-02T14:09:09.814Z,12.14
2023-03-02T14:11:36.177Z,12.18
2023-03-02T14:14:02.520Z,12.21
2023-03-02T14:16:28.901Z,12.21
2023-03-02T14:18:55.421Z,12.21
2023-03-02T14:21:21.933Z,12.20
2023-03-02T14:23:48.447Z,12.12
2023-03-02T14:26:14.653Z,11.95
2023-03-02T14:28:41.030Z,11.84
2023-03-02T14:31:07.440Z,11.61
2023-03-02T14:33:33.730Z,11.45
2023-03-02T14:36:00.217Z,11.36
2023-03-02T14:38:26.495Z,11.27
2023-03-02T14:40:52.980Z,11.17
2023-03-02T14:43:19.421Z,11.11
2023-03-02T14:45:46.287Z,11.05
2023-03-02T14:48:12.640Z,11.01
2023-03-02T14:50:39.094Z,10.94
2023-03-02T14:53:05.780Z,10.91
2023-03-02T14:55:32.317Z,10.87
2023-03-02T14:57:58.681Z,10.85
2023-03-02T15:00:25.212Z,10.83
2023-03-02T15:02:51.685Z,10.80
2023-03-02T15:05:18.070Z,10.78
2023-03-02T15:07:44.446Z,10.75
2023-03-02T15:10:10.946Z,10.74
2023-03-02T15:12:37.397Z,10.70
2023-03-02T15:15:03.757Z,10.68
2023-03-02T15:17:30.219Z,10.65
2023-03-02T15:19:56.839Z,10.62
2023-03-02T15:22:24.301Z,10.64
2023-03-02T15:24:50.654Z,10.63
2023-03-02T15:27:16.998Z,10.59
2023-03-02T15:29:43.429Z,10.53
2023-03-02T15:32:09.780Z,10.48
2023-03-02T15:34:36.159Z,10.45
2023-03-02T15:37:02.645Z,10.41
2023-03-02T15:39:28.997Z,10.34
2023-03-02T15:41:55.350Z,10.33
2023-03-02T15:44:25.620Z,10.30
2023-03-02T15:46:52.054Z,10.29
2023-03-02T15:49:18.364Z,10.29
2023-03-02T15:51:44.716Z,10.28
2023-03-02T15:54:11.392Z,10.26
2023-03-02T15:56:44.013Z,10.24
2023-03-02T15:59:05.048Z,10.22
2023-03-02T16:01:31.415Z,10.20
2023-03-02T16:03:57.739Z,10.15
2023-03-02T16:06:24.101Z,10.08
2023-03-02T16:08:50.846Z,10.04
2023-03-02T16:11:18.771Z,9.94
2023-03-02T16:13:43.534Z,9.91
2023-03-02T16:16:09.950Z,9.88
2023-03-02T16:18:36.240Z,9.88
2023-03-02T16:21:02.572Z,9.87
2023-03-02T16:23:28.989Z,9.86
2023-03-02T16:25:55.324Z,9.85
2023-03-02T16:28:21.725Z,9.84
2023-03-02T16:30:48.125Z,9.81
2023-03-02T16:33:14.484Z,9.73
2023-03-02T16:35:40.920Z,9.71
2023-03-02T16:38:07.314Z,9.71
2023-03-02T16:40:33.670Z,9.71
2023-03-02T16:43:01.236Z,9.67
2023-03-02T16:45:27.862Z,9.64
2023-03-02T16:47:54.256Z,9.64
2023-03-02T16:50:20.597Z,9.63
2023-03-02T16:52:46.945Z,9.58
2023-03-02T16:55:13.339Z,9.52
2023-03-02T16:57:39.960Z,9.50
2023-03-02T17:00:06.383Z,9.50
2023-03-02T17:02:32.712Z,9.48
2023-03-02T17:04:59.123Z,9.44
2023-03-02T17:07:28.155Z,9.36
2023-03-02T17:09:54.496Z,9.31
2023-03-02T17:12:21.048Z,9.29
2023-03-02T17:14:47.423Z,9.24
2023-03-02T17:17:13.803Z,9.21
2023-03-02T17:19:40.132Z,9.21
2023-03-02T17:22:06.759Z,9.20
2023-03-02T17:24:33.702Z,9.19
2023-03-02T17:27:00.039Z,9.21
2023-03-02T17:29:26.422Z,9.21
2023-03-02T17:31:52.832Z,9.07
2023-03-02T17:34:19.401Z,8.97
2023-03-02T17:36:46.785Z,8.95
2023-03-02T17:39:13.113Z,9.00
2023-03-02T17:41:39.807Z,9.01
2023-03-02T17:44:06.348Z,8.98
2023-03-02T17:46:32.724Z,8.95
2023-03-02T17:48:59.080Z,8.86
2023-03-02T17:51:26.488Z,8.75
2023-03-02T17:53:53.072Z,8.78
2023-03-02T17:56:19.701Z,9.13
2023-03-02T17:58:46.075Z,9.30
2023-03-02T18:01:12.413Z,9.27
2023-03-02T18:03:38.960Z,9.21
2023-03-02T18:06:05.059Z,9.21
2023-03-02T18:08:31.722Z,9.23
2023-03-02T18:10:58.071Z,9.19
2023-03-02T18:13:24.804Z,9.15
2023-03-02T18:15:51.254Z,9.12
2023-03-02T18:18:19.430Z,9.11
2023-03-02T18:20:45.773Z,9.08
2023-03-02T18:23:13.578Z,9.10
2023-03-02T18:25:39.888Z,9.11
2023-03-02T18:28:06.234Z,9.07
2023-03-02T18:30:32.646Z,9.06
2023-03-02T18:32:59.166Z,9.05
2023-03-02T18:35:25.561Z,9.02
2023-03-02T18:37:52.014Z,9.00
2023-03-02T18:40:18.293Z,8.98
2023-03-02T18:42:44.631Z,8.96
2023-03-02T18:45:11.201Z,8.94
2023-03-02T18:47:37.586Z,8.93
2023-03-02T18:50:03.981Z,8.91
2023-03-02T18:52:30.394Z,8.90
2023-03-02T18:54:56.695Z,8.90
2023-03-02T18:57:23.354Z,8.89
2023-03-02T18:59:49.745Z,8.89
2023-03-02T19:02:16.319Z,8.88
2023-03-02T19:04:42.627Z,8.88
2023-03-02T19:07:09.690Z,8.87
2023-03-02T19:09:36.001Z,8.86
2023-03-02T19:12:02.379Z,8.86
2023-03-02T19:14:28.941Z,8.85
2023-03-02T19:16:55.336Z,8.86
2023-03-02T19:19:21.924Z,8.84
2023-03-02T19:21:48.341Z,8.84
2023-03-02T19:24:14.743Z,8.83
2023-03-02T19:26:41.121Z,8.83
2023-03-02T19:29:07.943Z,8.82
2023-03-02T19:31:36.916Z,8.81
2023-03-02T19:34:03.245Z,8.81
2023-03-02T19:36:29.812Z,8.81
2023-03-02T19:38:56.175Z,8.80
2023-03-02T19:41:22.507Z,8.80
2023-03-02T19:43:49.018Z,8.80
2023-03-02T19:46:15.463Z,8.80
2023-03-02T19:48:41.736Z,8.56
2023-03-02T19:51:08.068Z,8.48
2023-03-02T19:53:34.429Z,8.49
2023-03-02T19:56:00.924Z,8.52
2023-03-02T19:58:27.523Z,8.55
2023-03-02T20:00:53.931Z,8.58
2023-03-02T20:03:20.253Z,8.59
2023-03-02T20:05:46.638Z,8.61
2023-03-02T20:08:12.998Z,8.62
2023-03-02T20:10:39.340Z,8.62
2023-03-02T20:13:05.727Z,8.63
2023-03-02T20:15:32.072Z,8.63
2023-03-02T20:17:59.231Z,8.63
2023-03-02T20:20:25.790Z,8.63
2023-03-02T20:22:52.177Z,8.64
2023-03-02T20:25:18.584Z,8.63
2023-03-02T20:27:44.940Z,8.63
2023-03-02T20:30:14.374Z,8.63
2023-03-02T20:32:40.718Z,8.64
2023-03-02T20:35:07.477Z,8.65
2023-03-02T20:37:33.864Z,8.66
2023-03-02T20:40:00.193Z,8.66
2023-03-02T20:42:26.556Z,8.66
2023-03-02T20:44:55.142Z,8.67
2023-03-02T20:47:21.732Z,8.66
2023-03-02T20:49:48.389Z,8.67
2023-03-02T20:52:16.919Z,8.67
2023-03-02T20:54:43.293Z,8.68
2023-03-02T20:57:09.698Z,8.68
2023-03-02T20:59:37.093Z,8.69
2023-03-02T21:02:03.472Z,8.68
2023-03-02T21:04:29.824Z,8.69
2023-03-02T21:06:56.148Z,8.68
2023-03-02T21:09:22.863Z,8.67
2023-03-02T21:11:49.201Z,8.67
2023-03-02T21:14:16.600Z,8.67
2023-03-02T21:16:43.094Z,8.66
2023-03-02T21:19:09.423Z,8.65
2023-03-02T21:21:41.489Z,8.65
2023-03-02T21:24:02.130Z,8.64
2023-03-02T21:26:28.519Z,8.63
2023-03-02T21:28:54.869Z,8.63
2023-03-02T21:31:21.310Z,8.64
2023-03-02T21:33:47.634Z,8.63
2023-03-02T21:36:13.974Z,8.64
2023-03-02T21:38:40.292Z,8.62
2023-03-02T21:41:06.643Z,8.62
2023-03-02T21:43:33.020Z,8.62
2023-03-02T21:45:59.397Z,8.61
2023-03-02T21:48:25.713Z,8.62
2023-03-02T21:50:52.174Z,8.60
2023-03-02T21:53:18.522Z,8.60
2023-03-02T21:55:44.849Z,8.60
2023-03-02T21:58:11.217Z,8.59
2023-03-02T22:00:39.732Z,8.59
2023-03-02T22:03:06.139Z,8.59
2023-03-02T22:05:32.482Z,8.59
2023-03-02T22:07:58.833Z,8.60
2023-03-02T22:10:25.502Z,8.60
2023-03-02T22:12:51.819Z,8.60
2023-03-02T22:15:18.206Z,8.59
2023-03-02T22:17:44.528Z,8.60
2023-03-02T22:20:10.902Z,8.61
2023-03-02T22:22:37.213Z,8.60
2023-03-02T22:25:03.595Z,8.60
2023-03-02T22:27:30.015Z,8.60
2023-03-02T22:29:56.406Z,8.60
2023-03-02T22:32:22.860Z,8.58
2023-03-02T22:34:50.465Z,8.58
2023-03-02T22:37:15.474Z,8.58
2023-03-02T22:39:42.457Z,8.57
2023-03-02T22:42:08.206Z,8.55
2023-03-02T22:44:34.585Z,8.54
2023-03-02T22:47:01.038Z,8.53
2023-03-02T22:49:27.484Z,8.51
2023-03-02T22:51:53.844Z,8.49
2023-03-02T22:54:20.221Z,8.49
2023-03-02T22:56:46.608Z,8.48
2023-03-02T22:59:12.981Z,8.47
2023-03-02T23:01:39.299Z,8.46
2023-03-02T23:04:05.698Z,8.46
2023-03-02T23:06:32.004Z,8.45
2023-03-02T23:08:58.361Z,8.44
2023-03-02T23:11:24.721Z,8.45
2023-03-02T23:13:51.345Z,8.43
2023-03-02T23:16:17.758Z,8.43
2023-03-02T23:18:44.057Z,8.42
2023-03-02T23:21:10.454Z,8.41
2023-03-02T23:23:36.819Z,8.42
2023-03-02T23:26:03.183Z,8.41
2023-03-02T23:28:29.566Z,8.41
2023-03-02T23:30:55.908Z,8.42
2023-03-02T23:33:22.249Z,8.43
2023-03-02T23:35:48.630Z,8.42
2023-03-02T23:38:15.039Z,8.43
2023-03-02T23:40:41.352Z,8.44
2023-03-02T23:43:07.685Z,8.44
2023-03-02T23:45:34.094Z,8.43
2023-03-02T23:48:00.463Z,8.43
2023-03-02T23:50:26.808Z,8.44
2023-03-02T23:52:53.238Z,8.44
2023-03-02T23:55:19.587Z,8.44
2023-03-02T23:57:45.965Z,8.44
